sensor_id;sensor_type;location;lat;lon;timestamp;P1;durP1;ratioP1;P2;durP2;ratioP2
22268;SDS011;11303;50.772;19.670;2023-10-19T00:01:15;123.28;;;66.60;;
22268;SDS011;11303;50.772;19.670;2023-10-19T00:03:18;121.72;;;62.47;;
22268;SDS011;11303;50.772;19.670;2023-10-19T00:05:20;120.40;;;66.65;;
22268;SDS011;11303;50.772;19.670;2023-10-19T00:07:22;120.90;;;63.42;;
22268;SDS011;11303;50.772;19.670;2023-10-19T00:09:24;123.25;;;62.85;;
22268;SDS011;11303;50.772;19.670;2023-10-19T00:11:27;125.10;;;62.72;;
22268;SDS011;11303;50.772;19.670;2023-10-19T00:13:28;129.25;;;65.30;;
22268;SDS011;11303;50.772;19.670;2023-10-19T00:15:32;123.45;;;65.32;;
22268;SDS011;11303;50.772;19.670;2023-10-19T00:17:35;127.18;;;65.95;;
22268;SDS011;11303;50.772;19.670;2023-10-19T00:19:39;119.57;;;63.13;;
22268;SDS011;11303;50.772;19.670;2023-10-19T00:21:43;132.25;;;65.90;;
22268;SDS011;11303;50.772;19.670;2023-10-19T00:23:53;170.98;;;92.05;;
22268;SDS011;11303;50.772;19.670;2023-10-19T00:26:00;262.13;;;122.95;;
22268;SDS011;11303;50.772;19.670;2023-10-19T00:28:10;300.67;;;128.38;;
22268;SDS011;11303;50.772;19.670;2023-10-19T00:30:14;204.02;;;96.13;;
22268;SDS011;11303;50.772;19.670;2023-10-19T00:32:19;175.88;;;86.03;;
22268;SDS011;11303;50.772;19.670;2023-10-19T00:34:27;173.07;;;86.22;;
22268;SDS011;11303;50.772;19.670;2023-10-19T00:36:30;172.23;;;89.65;;
22268;SDS011;11303;50.772;19.670;2023-10-19T00:38:35;180.15;;;89.13;;
22268;SDS011;11303;50.772;19.670;2023-10-19T00:40:36;169.88;;;88.03;;
22268;SDS011;11303;50.772;19.670;2023-10-19T00:42:38;175.85;;;89.35;;
22268;SDS011;11303;50.772;19.670;2023-10-19T00:44:47;172.25;;;90.93;;
22268;SDS011;11303;50.772;19.670;2023-10-19T00:46:51;174.75;;;92.72;;
22268;SDS011;11303;50.772;19.670;2023-10-19T00:49:05;190.88;;;93.60;;
22268;SDS011;11303;50.772;19.670;2023-10-19T00:51:07;181.40;;;92.90;;
22268;SDS011;11303;50.772;19.670;2023-10-19T00:53:11;161.10;;;89.07;;
22268;SDS011;11303;50.772;19.670;2023-10-19T00:55:14;162.32;;;88.25;;
22268;SDS011;11303;50.772;19.670;2023-10-19T00:57:18;166.93;;;91.95;;
22268;SDS011;11303;50.772;19.670;2023-10-19T00:59:34;178.55;;;91.25;;
22268;SDS011;11303;50.772;19.670;2023-10-19T01:01:49;221.57;;;116.90;;
22268;SDS011;11303;50.772;19.670;2023-10-19T01:03:55;198.27;;;106.68;;
22268;SDS011;11303;50.772;19.670;2023-10-19T01:05:57;198.80;;;108.28;;
22268;SDS011;11303;50.772;19.670;2023-10-19T01:07:59;215.75;;;110.80;;
22268;SDS011;11303;50.772;19.670;2023-10-19T01:10:04;194.88;;;104.70;;
22268;SDS011;11303;50.772;19.670;2023-10-19T01:12:07;200.02;;;111.00;;
22268;SDS011;11303;50.772;19.670;2023-10-19T01:14:26;204.10;;;112.47;;
22268;SDS011;11303;50.772;19.670;2023-10-19T01:16:29;209.68;;;113.80;;
22268;SDS011;11303;50.772;19.670;2023-10-19T01:18:33;194.85;;;109.10;;
22268;SDS011;11303;50.772;19.670;2023-10-19T01:20:34;184.82;;;98.50;;
22268;SDS011;11303;50.772;19.670;2023-10-19T01:25:12;162.63;;;84.60;;
22268;SDS011;11303;50.772;19.670;2023-10-19T01:27:21;164.30;;;85.72;;
22268;SDS011;11303;50.772;19.670;2023-10-19T01:29:22;168.65;;;86.43;;
22268;SDS011;11303;50.772;19.670;2023-10-19T01:31:28;169.68;;;89.78;;
22268;SDS011;11303;50.772;19.670;2023-10-19T01:33:30;184.32;;;93.18;;
22268;SDS011;11303;50.772;19.670;2023-10-19T01:35:32;160.20;;;84.03;;
22268;SDS011;11303;50.772;19.670;2023-10-19T01:37:53;162.63;;;82.65;;
22268;SDS011;11303;50.772;19.670;2023-10-19T01:39:55;183.38;;;88.47;;
22268;SDS011;11303;50.772;19.670;2023-10-19T01:41:57;173.07;;;87.72;;
22268;SDS011;11303;50.772;19.670;2023-10-19T01:43:59;191.75;;;93.82;;
22268;SDS011;11303;50.772;19.670;2023-10-19T01:46:06;183.15;;;88.70;;
22268;SDS011;11303;50.772;19.670;2023-10-19T01:48:14;199.35;;;97.35;;
22268;SDS011;11303;50.772;19.670;2023-10-19T01:50:17;216.40;;;117.22;;
22268;SDS011;11303;50.772;19.670;2023-10-19T01:52:21;242.82;;;128.82;;
22268;SDS011;11303;50.772;19.670;2023-10-19T01:54:26;195.73;;;103.68;;
22268;SDS011;11303;50.772;19.670;2023-10-19T01:56:28;166.13;;;86.28;;
22268;SDS011;11303;50.772;19.670;2023-10-19T01:58:30;147.73;;;79.60;;
22268;SDS011;11303;50.772;19.670;2023-10-19T02:00:35;150.05;;;75.50;;
22268;SDS011;11303;50.772;19.670;2023-10-19T02:02:38;123.60;;;60.30;;
22268;SDS011;11303;50.772;19.670;2023-10-19T02:04:40;135.57;;;69.05;;
22268;SDS011;11303;50.772;19.670;2023-10-19T02:06:42;136.35;;;65.38;;
22268;SDS011;11303;50.772;19.670;2023-10-19T02:08:52;145.77;;;72.65;;
22268;SDS011;11303;50.772;19.670;2023-10-19T02:11:02;130.45;;;68.07;;
22268;SDS011;11303;50.772;19.670;2023-10-19T02:13:04;126.35;;;63.25;;
22268;SDS011;11303;50.772;19.670;2023-10-19T02:15:08;110.10;;;55.38;;
22268;SDS011;11303;50.772;19.670;2023-10-19T02:17:10;124.03;;;62.25;;
22268;SDS011;11303;50.772;19.670;2023-10-19T02:19:13;119.25;;;59.75;;
22268;SDS011;11303;50.772;19.670;2023-10-19T02:21:15;125.05;;;60.83;;
22268;SDS011;11303;50.772;19.670;2023-10-19T02:23:23;140.88;;;73.63;;
22268;SDS011;11303;50.772;19.670;2023-10-19T02:25:25;139.05;;;67.97;;
22268;SDS011;11303;50.772;19.670;2023-10-19T02:27:29;134.10;;;64.38;;
22268;SDS011;11303;50.772;19.670;2023-10-19T02:29:33;114.13;;;58.75;;
22268;SDS011;11303;50.772;19.670;2023-10-19T02:31:37;112.22;;;57.00;;
22268;SDS011;11303;50.772;19.670;2023-10-19T02:33:44;118.63;;;62.47;;
22268;SDS011;11303;50.772;19.670;2023-10-19T02:35:53;141.43;;;71.72;;
22268;SDS011;11303;50.772;19.670;2023-10-19T02:37:58;164.77;;;82.32;;
22268;SDS011;11303;50.772;19.670;2023-10-19T02:39:59;157.05;;;77.50;;
22268;SDS011;11303;50.772;19.670;2023-10-19T02:42:01;148.90;;;73.18;;
22268;SDS011;11303;50.772;19.670;2023-10-19T02:44:07;131.30;;;68.32;;
22268;SDS011;11303;50.772;19.670;2023-10-19T02:46:18;131.45;;;69.85;;
22268;SDS011;11303;50.772;19.670;2023-10-19T02:48:21;144.15;;;74.10;;
22268;SDS011;11303;50.772;19.670;2023-10-19T02:50:25;144.57;;;75.30;;
22268;SDS011;11303;50.772;19.670;2023-10-19T02:52:27;160.85;;;83.68;;
22268;SDS011;11303;50.772;19.670;2023-10-19T02:54:29;158.95;;;83.85;;
22268;SDS011;11303;50.772;19.670;2023-10-19T02:56:35;147.35;;;80.00;;
22268;SDS011;11303;50.772;19.670;2023-10-19T02:58:38;140.20;;;74.43;;
22268;SDS011;11303;50.772;19.670;2023-10-19T03:00:43;137.93;;;73.90;;
22268;SDS011;11303;50.772;19.670;2023-10-19T03:02:48;132.88;;;72.20;;
22268;SDS011;11303;50.772;19.670;2023-10-19T03:04:50;143.57;;;71.13;;
22268;SDS011;11303;50.772;19.670;2023-10-19T03:06:51;127.28;;;67.65;;
22268;SDS011;11303;50.772;19.670;2023-10-19T03:08:53;132.60;;;69.72;;
22268;SDS011;11303;50.772;19.670;2023-10-19T03:11:05;125.90;;;67.55;;
22268;SDS011;11303;50.772;19.670;2023-10-19T03:13:08;122.43;;;65.40;;
22268;SDS011;11303;50.772;19.670;2023-10-19T03:15:10;129.98;;;69.60;;
22268;SDS011;11303;50.772;19.670;2023-10-19T03:17:15;126.38;;;66.68;;
22268;SDS011;11303;50.772;19.670;2023-10-19T03:19:17;135.25;;;71.15;;
22268;SDS011;11303;50.772;19.670;2023-10-19T03:21:19;136.95;;;70.35;;
22268;SDS011;11303;50.772;19.670;2023-10-19T03:23:27;130.20;;;68.40;;
22268;SDS011;11303;50.772;19.670;2023-10-19T03:25:29;139.65;;;72.13;;
22268;SDS011;11303;50.772;19.670;2023-10-19T03:27:50;145.68;;;74.88;;
22268;SDS011;11303;50.772;19.670;2023-10-19T03:29:52;124.93;;;68.15;;
22268;SDS011;11303;50.772;19.670;2023-10-19T03:31:58;109.60;;;56.10;;
22268;SDS011;11303;50.772;19.670;2023-10-19T03:34:03;144.68;;;78.68;;
22268;SDS011;11303;50.772;19.670;2023-10-19T03:36:07;148.73;;;79.88;;
22268;SDS011;11303;50.772;19.670;2023-10-19T03:38:14;183.13;;;108.70;;
22268;SDS011;11303;50.772;19.670;2023-10-19T03:40:18;122.40;;;59.42;;
22268;SDS011;11303;50.772;19.670;2023-10-19T03:42:28;106.43;;;55.00;;
22268;SDS011;11303;50.772;19.670;2023-10-19T03:44:34;125.05;;;61.20;;
22268;SDS011;11303;50.772;19.670;2023-10-19T03:46:44;124.57;;;56.65;;
22268;SDS011;11303;50.772;19.670;2023-10-19T03:48:59;117.07;;;59.42;;
22268;SDS011;11303;50.772;19.670;2023-10-19T03:51:14;113.20;;;58.22;;
22268;SDS011;11303;50.772;19.670;2023-10-19T03:53:16;200.48;;;89.90;;
22268;SDS011;11303;50.772;19.670;2023-10-19T03:55:19;115.10;;;57.40;;
22268;SDS011;11303;50.772;19.670;2023-10-19T03:57:21;134.55;;;70.68;;
22268;SDS011;11303;50.772;19.670;2023-10-19T03:59:25;215.85;;;110.25;;
22268;SDS011;11303;50.772;19.670;2023-10-19T04:01:35;173.32;;;87.20;;
22268;SDS011;11303;50.772;19.670;2023-10-19T04:03:36;192.68;;;104.05;;
22268;SDS011;11303;50.772;19.670;2023-10-19T04:05:38;191.30;;;104.70;;
22268;SDS011;11303;50.772;19.670;2023-10-19T04:07:40;191.13;;;103.75;;
22268;SDS011;11303;50.772;19.670;2023-10-19T04:09:42;169.10;;;85.10;;
22268;SDS011;11303;50.772;19.670;2023-10-19T04:12:03;179.90;;;93.20;;
22268;SDS011;11303;50.772;19.670;2023-10-19T04:14:04;163.27;;;82.63;;
22268;SDS011;11303;50.772;19.670;2023-10-19T04:16:06;114.50;;;56.33;;
22268;SDS011;11303;50.772;19.670;2023-10-19T04:18:11;112.18;;;55.70;;
22268;SDS011;11303;50.772;19.670;2023-10-19T04:20:13;103.35;;;52.75;;
22268;SDS011;11303;50.772;19.670;2023-10-19T04:22:19;118.18;;;61.03;;
22268;SDS011;11303;50.772;19.670;2023-10-19T04:24:24;117.38;;;57.47;;
22268;SDS011;11303;50.772;19.670;2023-10-19T04:26:26;110.05;;;59.20;;
22268;SDS011;11303;50.772;19.670;2023-10-19T04:28:27;109.13;;;56.47;;
22268;SDS011;11303;50.772;19.670;2023-10-19T04:30:32;113.18;;;57.03;;
22268;SDS011;11303;50.772;19.670;2023-10-19T04:32:38;116.90;;;61.85;;
22268;SDS011;11303;50.772;19.670;2023-10-19T04:34:41;124.60;;;66.40;;
22268;SDS011;11303;50.772;19.670;2023-10-19T04:36:43;132.05;;;63.50;;
22268;SDS011;11303;50.772;19.670;2023-10-19T04:38:44;135.07;;;67.88;;
22268;SDS011;11303;50.772;19.670;2023-10-19T04:40:46;121.20;;;64.35;;
22268;SDS011;11303;50.772;19.670;2023-10-19T04:42:50;127.88;;;65.18;;
22268;SDS011;11303;50.772;19.670;2023-10-19T04:44:53;124.90;;;65.15;;
22268;SDS011;11303;50.772;19.670;2023-10-19T04:46:55;121.68;;;67.47;;
22268;SDS011;11303;50.772;19.670;2023-10-19T04:48:57;125.15;;;66.55;;
22268;SDS011;11303;50.772;19.670;2023-10-19T04:50:58;131.82;;;67.32;;
22268;SDS011;11303;50.772;19.670;2023-10-19T04:53:00;132.30;;;70.28;;
22268;SDS011;11303;50.772;19.670;2023-10-19T04:55:02;141.20;;;72.43;;
22268;SDS011;11303;50.772;19.670;2023-10-19T04:57:04;141.68;;;73.05;;
22268;SDS011;11303;50.772;19.670;2023-10-19T04:59:06;151.43;;;79.25;;
22268;SDS011;11303;50.772;19.670;2023-10-19T05:01:07;147.05;;;78.72;;
22268;SDS011;11303;50.772;19.670;2023-10-19T05:03:13;148.65;;;78.85;;
22268;SDS011;11303;50.772;19.670;2023-10-19T05:05:19;154.55;;;80.40;;
22268;SDS011;11303;50.772;19.670;2023-10-19T05:07:21;158.10;;;81.50;;
22268;SDS011;11303;50.772;19.670;2023-10-19T05:09:23;153.85;;;81.68;;
22268;SDS011;11303;50.772;19.670;2023-10-19T05:11:24;166.30;;;84.85;;
22268;SDS011;11303;50.772;19.670;2023-10-19T05:13:26;163.00;;;86.68;;
22268;SDS011;11303;50.772;19.670;2023-10-19T05:15:28;164.80;;;88.18;;
22268;SDS011;11303;50.772;19.670;2023-10-19T05:17:30;179.60;;;92.43;;
22268;SDS011;11303;50.772;19.670;2023-10-19T05:19:31;182.55;;;93.50;;
22268;SDS011;11303;50.772;19.670;2023-10-19T05:21:37;181.48;;;87.05;;
22268;SDS011;11303;50.772;19.670;2023-10-19T05:23:39;176.90;;;94.68;;
22268;SDS011;11303;50.772;19.670;2023-10-19T05:25:41;169.98;;;90.65;;
22268;SDS011;11303;50.772;19.670;2023-10-19T05:27:42;178.25;;;91.15;;
22268;SDS011;11303;50.772;19.670;2023-10-19T05:29:47;213.20;;;103.68;;
22268;SDS011;11303;50.772;19.670;2023-10-19T05:31:48;209.82;;;103.25;;
22268;SDS011;11303;50.772;19.670;2023-10-19T05:33:55;165.93;;;78.32;;
22268;SDS011;11303;50.772;19.670;2023-10-19T05:35:57;145.32;;;70.80;;
22268;SDS011;11303;50.772;19.670;2023-10-19T05:37:58;185.35;;;92.88;;
22268;SDS011;11303;50.772;19.670;2023-10-19T05:40:00;136.70;;;62.72;;
22268;SDS011;11303;50.772;19.670;2023-10-19T05:42:02;138.88;;;67.80;;
22268;SDS011;11303;50.772;19.670;2023-10-19T05:44:04;145.95;;;64.90;;
22268;SDS011;11303;50.772;19.670;2023-10-19T05:46:06;142.10;;;62.83;;
22268;SDS011;11303;50.772;19.670;2023-10-19T05:48:07;143.98;;;58.60;;
22268;SDS011;11303;50.772;19.670;2023-10-19T05:50:09;116.95;;;57.15;;
22268;SDS011;11303;50.772;19.670;2023-10-19T05:52:16;178.05;;;58.38;;
22268;SDS011;11303;50.772;19.670;2023-10-19T05:54:18;208.80;;;65.28;;
22268;SDS011;11303;50.772;19.670;2023-10-19T05:56:19;139.50;;;66.05;;
22268;SDS011;11303;50.772;19.670;2023-10-19T05:58:22;179.23;;;78.10;;
22268;SDS011;11303;50.772;19.670;2023-10-19T06:00:24;154.85;;;64.63;;
22268;SDS011;11303;50.772;19.670;2023-10-19T06:02:27;127.82;;;60.47;;
22268;SDS011;11303;50.772;19.670;2023-10-19T06:04:33;136.57;;;63.13;;
22268;SDS011;11303;50.772;19.670;2023-10-19T06:06:36;122.50;;;57.45;;
22268;SDS011;11303;50.772;19.670;2023-10-19T06:08:38;106.55;;;49.92;;
22268;SDS011;11303;50.772;19.670;2023-10-19T06:10:41;102.68;;;46.63;;
22268;SDS011;11303;50.772;19.670;2023-10-19T06:12:44;113.15;;;53.70;;
22268;SDS011;11303;50.772;19.670;2023-10-19T06:14:47;113.68;;;52.38;;
22268;SDS011;11303;50.772;19.670;2023-10-19T06:16:48;113.50;;;52.55;;
22268;SDS011;11303;50.772;19.670;2023-10-19T06:18:50;121.15;;;53.20;;
22268;SDS011;11303;50.772;19.670;2023-10-19T06:20:52;126.47;;;61.63;;
22268;SDS011;11303;50.772;19.670;2023-10-19T06:22:57;134.52;;;60.58;;
22268;SDS011;11303;50.772;19.670;2023-10-19T06:25:05;134.23;;;60.13;;
22268;SDS011;11303;50.772;19.670;2023-10-19T06:27:07;119.60;;;53.03;;
22268;SDS011;11303;50.772;19.670;2023-10-19T06:29:10;118.38;;;55.20;;
22268;SDS011;11303;50.772;19.670;2023-10-19T06:31:12;117.35;;;54.50;;
22268;SDS011;11303;50.772;19.670;2023-10-19T06:33:16;120.70;;;58.25;;
22268;SDS011;11303;50.772;19.670;2023-10-19T06:35:18;114.13;;;60.60;;
22268;SDS011;11303;50.772;19.670;2023-10-19T06:37:21;132.85;;;64.88;;
22268;SDS011;11303;50.772;19.670;2023-10-19T06:39:23;118.03;;;60.13;;
22268;SDS011;11303;50.772;19.670;2023-10-19T06:41:25;116.43;;;54.72;;
22268;SDS011;11303;50.772;19.670;2023-10-19T06:43:27;113.43;;;56.80;;
22268;SDS011;11303;50.772;19.670;2023-10-19T06:45:33;110.03;;;53.95;;
22268;SDS011;11303;50.772;19.670;2023-10-19T06:47:35;111.20;;;53.05;;
22268;SDS011;11303;50.772;19.670;2023-10-19T06:49:39;97.85;;;52.53;;
22268;SDS011;11303;50.772;19.670;2023-10-19T06:51:41;99.40;;;52.70;;
22268;SDS011;11303;50.772;19.670;2023-10-19T06:53:42;86.28;;;46.30;;
22268;SDS011;11303;50.772;19.670;2023-10-19T06:55:44;97.93;;;50.80;;
22268;SDS011;11303;50.772;19.670;2023-10-19T06:57:50;76.82;;;40.55;;
22268;SDS011;11303;50.772;19.670;2023-10-19T06:59:54;89.20;;;42.90;;
22268;SDS011;11303;50.772;19.670;2023-10-19T07:01:55;79.05;;;40.33;;
22268;SDS011;11303;50.772;19.670;2023-10-19T07:03:57;76.53;;;38.78;;
22268;SDS011;11303;50.772;19.670;2023-10-19T07:05:59;70.97;;;37.33;;
22268;SDS011;11303;50.772;19.670;2023-10-19T07:08:09;67.38;;;35.35;;
22268;SDS011;11303;50.772;19.670;2023-10-19T07:10:11;71.47;;;37.70;;
22268;SDS011;11303;50.772;19.670;2023-10-19T07:12:16;71.72;;;38.55;;
22268;SDS011;11303;50.772;19.670;2023-10-19T07:14:20;223.90;;;92.50;;
22268;SDS011;11303;50.772;19.670;2023-10-19T07:16:23;205.93;;;87.18;;
22268;SDS011;11303;50.772;19.670;2023-10-19T07:18:25;86.85;;;42.58;;
22268;SDS011;11303;50.772;19.670;2023-10-19T07:20:27;67.82;;;38.72;;
22268;SDS011;11303;50.772;19.670;2023-10-19T07:22:39;69.53;;;38.70;;
22268;SDS011;11303;50.772;19.670;2023-10-19T07:24:43;62.03;;;34.25;;
22268;SDS011;11303;50.772;19.670;2023-10-19T07:26:45;61.88;;;31.50;;
22268;SDS011;11303;50.772;19.670;2023-10-19T07:29:03;44.37;;;25.10;;
22268;SDS011;11303;50.772;19.670;2023-10-19T07:31:06;58.20;;;33.33;;
22268;SDS011;11303;50.772;19.670;2023-10-19T07:33:16;60.10;;;30.88;;
22268;SDS011;11303;50.772;19.670;2023-10-19T07:35:18;55.92;;;31.33;;
22268;SDS011;11303;50.772;19.670;2023-10-19T07:37:21;59.17;;;33.38;;
22268;SDS011;11303;50.772;19.670;2023-10-19T07:39:24;54.75;;;31.38;;
22268;SDS011;11303;50.772;19.670;2023-10-19T07:41:28;51.40;;;29.83;;
22268;SDS011;11303;50.772;19.670;2023-10-19T07:43:35;53.65;;;31.25;;
22268;SDS011;11303;50.772;19.670;2023-10-19T07:45:37;45.28;;;27.38;;
22268;SDS011;11303;50.772;19.670;2023-10-19T07:47:39;45.13;;;26.35;;
22268;SDS011;11303;50.772;19.670;2023-10-19T07:49:42;48.38;;;28.50;;
22268;SDS011;11303;50.772;19.670;2023-10-19T07:51:45;68.07;;;35.63;;
22268;SDS011;11303;50.772;19.670;2023-10-19T07:53:48;45.22;;;26.75;;
22268;SDS011;11303;50.772;19.670;2023-10-19T07:55:49;44.58;;;25.65;;
22268;SDS011;11303;50.772;19.670;2023-10-19T07:57:52;45.90;;;27.90;;
22268;SDS011;11303;50.772;19.670;2023-10-19T07:59:55;39.22;;;25.08;;
22268;SDS011;11303;50.772;19.670;2023-10-19T08:01:58;45.30;;;27.05;;
22268;SDS011;11303;50.772;19.670;2023-10-19T08:04:03;40.70;;;25.23;;
22268;SDS011;11303;50.772;19.670;2023-10-19T08:06:06;41.42;;;26.17;;
22268;SDS011;11303;50.772;19.670;2023-10-19T08:08:08;40.05;;;25.15;;
22268;SDS011;11303;50.772;19.670;2023-10-19T08:10:11;41.33;;;26.95;;
22268;SDS011;11303;50.772;19.670;2023-10-19T08:12:13;42.58;;;25.48;;
22268;SDS011;11303;50.772;19.670;2023-10-19T08:14:15;40.33;;;24.42;;
22268;SDS011;11303;50.772;19.670;2023-10-19T08:16:16;56.45;;;33.10;;
22268;SDS011;11303;50.772;19.670;2023-10-19T08:18:18;43.63;;;25.95;;
22268;SDS011;11303;50.772;19.670;2023-10-19T08:20:20;39.88;;;23.05;;
22268;SDS011;11303;50.772;19.670;2023-10-19T08:22:26;39.70;;;23.25;;
22268;SDS011;11303;50.772;19.670;2023-10-19T08:24:28;43.28;;;24.38;;
22268;SDS011;11303;50.772;19.670;2023-10-19T08:26:32;35.08;;;21.33;;
22268;SDS011;11303;50.772;19.670;2023-10-19T08:28:33;38.80;;;23.63;;
22268;SDS011;11303;50.772;19.670;2023-10-19T08:30:35;36.88;;;23.70;;
22268;SDS011;11303;50.772;19.670;2023-10-19T08:32:39;36.10;;;22.85;;
22268;SDS011;11303;50.772;19.670;2023-10-19T08:34:43;40.17;;;23.60;;
22268;SDS011;11303;50.772;19.670;2023-10-19T08:36:44;42.38;;;25.45;;
22268;SDS011;11303;50.772;19.670;2023-10-19T08:38:46;38.05;;;21.80;;
22268;SDS011;11303;50.772;19.670;2023-10-19T08:40:48;34.55;;;21.27;;
22268;SDS011;11303;50.772;19.670;2023-10-19T08:42:52;93.40;;;47.05;;
22268;SDS011;11303;50.772;19.670;2023-10-19T08:44:54;37.72;;;22.30;;
22268;SDS011;11303;50.772;19.670;2023-10-19T08:46:56;37.35;;;23.35;;
22268;SDS011;11303;50.772;19.670;2023-10-19T08:49:01;37.58;;;22.13;;
22268;SDS011;11303;50.772;19.670;2023-10-19T08:51:03;37.97;;;21.73;;
22268;SDS011;11303;50.772;19.670;2023-10-19T08:53:11;35.17;;;21.30;;
22268;SDS011;11303;50.772;19.670;2023-10-19T08:55:16;35.58;;;21.08;;
22268;SDS011;11303;50.772;19.670;2023-10-19T08:57:18;39.20;;;24.23;;
22268;SDS011;11303;50.772;19.670;2023-10-19T08:59:20;34.58;;;21.42;;
22268;SDS011;11303;50.772;19.670;2023-10-19T09:01:21;33.97;;;21.33;;
22268;SDS011;11303;50.772;19.670;2023-10-19T09:03:25;64.53;;;35.10;;
22268;SDS011;11303;50.772;19.670;2023-10-19T09:05:28;35.55;;;23.38;;
22268;SDS011;11303;50.772;19.670;2023-10-19T09:07:31;35.85;;;20.80;;
22268;SDS011;11303;50.772;19.670;2023-10-19T09:09:35;33.97;;;21.42;;
22268;SDS011;11303;50.772;19.670;2023-10-19T09:11:41;35.65;;;22.63;;
22268;SDS011;11303;50.772;19.670;2023-10-19T09:13:50;36.67;;;21.40;;
22268;SDS011;11303;50.772;19.670;2023-10-19T09:15:53;32.28;;;21.17;;
22268;SDS011;11303;50.772;19.670;2023-10-19T09:20:30;34.65;;;20.58;;
22268;SDS011;11303;50.772;19.670;2023-10-19T09:22:35;34.45;;;19.40;;
22268;SDS011;11303;50.772;19.670;2023-10-19T09:24:46;35.53;;;21.02;;
22268;SDS011;11303;50.772;19.670;2023-10-19T09:26:47;29.63;;;18.55;;
22268;SDS011;11303;50.772;19.670;2023-10-19T09:28:51;34.30;;;19.17;;
22268;SDS011;11303;50.772;19.670;2023-10-19T09:30:54;33.05;;;20.00;;
22268;SDS011;11303;50.772;19.670;2023-10-19T09:32:56;29.48;;;17.30;;
22268;SDS011;11303;50.772;19.670;2023-10-19T09:34:58;32.80;;;18.55;;
22268;SDS011;11303;50.772;19.670;2023-10-19T09:37:01;28.88;;;17.25;;
22268;SDS011;11303;50.772;19.670;2023-10-19T09:39:04;34.35;;;19.75;;
22268;SDS011;11303;50.772;19.670;2023-10-19T09:41:08;34.67;;;19.48;;
22268;SDS011;11303;50.772;19.670;2023-10-19T09:43:18;28.17;;;17.40;;
22268;SDS011;11303;50.772;19.670;2023-10-19T09:45:27;28.90;;;18.33;;
22268;SDS011;11303;50.772;19.670;2023-10-19T09:47:34;27.45;;;18.00;;
22268;SDS011;11303;50.772;19.670;2023-10-19T09:49:40;31.38;;;18.25;;
22268;SDS011;11303;50.772;19.670;2023-10-19T09:51:42;33.70;;;19.75;;
22268;SDS011;11303;50.772;19.670;2023-10-19T09:54:20;29.73;;;18.63;;
22268;SDS011;11303;50.772;19.670;2023-10-19T09:56:34;30.98;;;18.17;;
22268;SDS011;11303;50.772;19.670;2023-10-19T09:58:40;31.33;;;18.83;;
22268;SDS011;11303;50.772;19.670;2023-10-19T10:00:47;30.43;;;17.73;;
22268;SDS011;11303;50.772;19.670;2023-10-19T10:02:52;52.13;;;31.20;;
22268;SDS011;11303;50.772;19.670;2023-10-19T10:04:57;26.42;;;18.05;;
22268;SDS011;11303;50.772;19.670;2023-10-19T10:06:59;40.90;;;20.40;;
22268;SDS011;11303;50.772;19.670;2023-10-19T10:09:01;32.47;;;17.50;;
22268;SDS011;11303;50.772;19.670;2023-10-19T10:15:38;31.63;;;17.63;;
22268;SDS011;11303;50.772;19.670;2023-10-19T10:17:41;32.53;;;19.33;;
22268;SDS011;11303;50.772;19.670;2023-10-19T10:19:43;37.85;;;21.35;;
22268;SDS011;11303;50.772;19.670;2023-10-19T10:22:02;33.38;;;19.80;;
22268;SDS011;11303;50.772;19.670;2023-10-19T10:24:16;29.05;;;18.67;;
22268;SDS011;11303;50.772;19.670;2023-10-19T10:26:18;35.00;;;19.10;;
22268;SDS011;11303;50.772;19.670;2023-10-19T10:28:25;29.65;;;17.50;;
22268;SDS011;11303;50.772;19.670;2023-10-19T10:30:29;32.47;;;19.23;;
22268;SDS011;11303;50.772;19.670;2023-10-19T10:32:45;34.55;;;18.92;;
22268;SDS011;11303;50.772;19.670;2023-10-19T10:34:55;54.72;;;34.97;;
22268;SDS011;11303;50.772;19.670;2023-10-19T10:37:01;58.75;;;34.20;;
22268;SDS011;11303;50.772;19.670;2023-10-19T10:39:09;45.13;;;27.33;;
22268;SDS011;11303;50.772;19.670;2023-10-19T10:41:20;35.72;;;21.08;;
22268;SDS011;11303;50.772;19.670;2023-10-19T10:43:23;31.00;;;19.33;;
22268;SDS011;11303;50.772;19.670;2023-10-19T10:45:24;41.13;;;22.98;;
22268;SDS011;11303;50.772;19.670;2023-10-19T10:47:26;29.73;;;18.63;;
22268;SDS011;11303;50.772;19.670;2023-10-19T10:49:31;47.60;;;23.73;;
22268;SDS011;11303;50.772;19.670;2023-10-19T10:51:33;35.85;;;19.80;;
22268;SDS011;11303;50.772;19.670;2023-10-19T10:53:34;37.72;;;22.27;;
22268;SDS011;11303;50.772;19.670;2023-10-19T10:55:36;39.05;;;21.02;;
22268;SDS011;11303;50.772;19.670;2023-10-19T10:57:38;32.13;;;18.90;;
22268;SDS011;11303;50.772;19.670;2023-10-19T10:59:41;34.53;;;18.80;;
22268;SDS011;11303;50.772;19.670;2023-10-19T11:01:43;35.88;;;19.55;;
22268;SDS011;11303;50.772;19.670;2023-10-19T11:03:45;31.73;;;19.20;;
22268;SDS011;11303;50.772;19.670;2023-10-19T11:05:48;32.55;;;20.17;;
22268;SDS011;11303;50.772;19.670;2023-10-19T11:08:04;40.33;;;23.52;;
22268;SDS011;11303;50.772;19.670;2023-10-19T11:10:06;39.08;;;23.90;;
22268;SDS011;11303;50.772;19.670;2023-10-19T11:12:11;42.33;;;24.27;;
22268;SDS011;11303;50.772;19.670;2023-10-19T11:14:14;49.53;;;28.40;;
22268;SDS011;11303;50.772;19.670;2023-10-19T11:16:21;76.70;;;41.67;;
22268;SDS011;11303;50.772;19.670;2023-10-19T11:18:31;55.95;;;30.10;;
22268;SDS011;11303;50.772;19.670;2023-10-19T11:20:37;54.83;;;32.20;;
22268;SDS011;11303;50.772;19.670;2023-10-19T11:22:38;45.05;;;26.42;;
22268;SDS011;11303;50.772;19.670;2023-10-19T11:24:49;58.85;;;33.28;;
22268;SDS011;11303;50.772;19.670;2023-10-19T11:26:52;59.63;;;30.50;;
22268;SDS011;11303;50.772;19.670;2023-10-19T11:29:00;54.38;;;30.65;;
22268;SDS011;11303;50.772;19.670;2023-10-19T11:31:19;57.38;;;33.67;;
22268;SDS011;11303;50.772;19.670;2023-10-19T11:33:24;47.22;;;31.23;;
22268;SDS011;11303;50.772;19.670;2023-10-19T11:35:27;53.78;;;32.80;;
22268;SDS011;11303;50.772;19.670;2023-10-19T11:37:54;60.85;;;36.95;;
22268;SDS011;11303;50.772;19.670;2023-10-19T11:39:57;47.70;;;28.92;;
22268;SDS011;11303;50.772;19.670;2023-10-19T11:41:59;53.72;;;30.88;;
22268;SDS011;11303;50.772;19.670;2023-10-19T11:44:01;62.65;;;38.05;;
22268;SDS011;11303;50.772;19.670;2023-10-19T11:46:03;59.78;;;35.58;;
22268;SDS011;11303;50.772;19.670;2023-10-19T11:48:05;56.95;;;34.42;;
22268;SDS011;11303;50.772;19.670;2023-10-19T11:50:09;45.65;;;25.92;;
22268;SDS011;11303;50.772;19.670;2023-10-19T11:52:13;57.65;;;31.55;;
22268;SDS011;11303;50.772;19.670;2023-10-19T11:54:16;55.70;;;32.00;;
22268;SDS011;11303;50.772;19.670;2023-10-19T11:56:19;47.83;;;28.33;;
22268;SDS011;11303;50.772;19.670;2023-10-19T11:58:22;45.05;;;26.58;;
22268;SDS011;11303;50.772;19.670;2023-10-19T12:00:24;42.30;;;28.20;;